createdAt,value
2022-07-28T00:01:13.140Z,24.31
2022-07-28T00:03:40.493Z,24.58
2022-07-28T00:06:07.466Z,24.60
2022-07-28T00:08:34.253Z,24.43
2022-07-28T00:11:01.006Z,24.67
2022-07-28T00:13:27.774Z,24.62
2022-07-28T00:15:54.608Z,24.76
2022-07-28T00:18:21.417Z,24.53
2022-07-28T00:20:48.404Z,24.69
2022-07-28T00:23:15.298Z,24.65
2022-07-28T00:25:42.236Z,24.75
2022-07-28T00:28:09.015Z,24.52
2022-07-28T00:30:36.452Z,24.59
2022-07-28T00:33:03.506Z,24.63
2022-07-28T00:35:31.723Z,24.32
2022-07-28T00:37:59.435Z,24.22
2022-07-28T00:40:46.925Z,24.18
2022-07-28T00:43:14.075Z,24.32
2022-07-28T00:45:40.860Z,24.38
2022-07-28T00:48:07.770Z,24.27
2022-07-28T00:50:34.636Z,24.37
2022-07-28T00:53:01.560Z,24.00
2022-07-28T00:55:28.355Z,23.80
2022-07-28T00:57:55.245Z,23.79
2022-07-28T01:00:22.365Z,23.88
2022-07-28T01:02:49.799Z,23.99
2022-07-28T01:05:16.705Z,24.05
2022-07-28T01:08:52.512Z,24.03
2022-07-28T01:11:32.756Z,24.09
2022-07-28T01:14:26.559Z,24.05
2022-07-28T01:17:09.089Z,24.23
2022-07-28T01:20:05.898Z,24.25
2022-07-28T01:22:38.892Z,24.31
2022-07-28T01:25:21.676Z,24.34
2022-07-28T01:27:48.418Z,24.31
2022-07-28T01:30:34.340Z,24.39
2022-07-28T01:33:41.435Z,24.39
2022-07-28T01:36:29.521Z,24.40
2022-07-28T01:38:57.141Z,24.42
2022-07-28T01:41:27.940Z,24.39
2022-07-28T01:44:03.235Z,24.50
2022-07-28T01:46:30.587Z,24.35
2022-07-28T01:48:59.008Z,24.50
2022-07-28T01:51:29.485Z,24.26
2022-07-28T01:53:59.670Z,23.97
2022-07-28T01:56:28.765Z,24.01
2022-07-28T01:58:58.275Z,24.04
2022-07-28T02:01:25.624Z,23.67
2022-07-28T02:03:54.685Z,23.83
2022-07-28T02:06:22.806Z,23.64
2022-07-28T02:08:51.762Z,23.38
2022-07-28T02:11:37.474Z,23.38
2022-07-28T02:14:05.213Z,23.50
2022-07-28T02:16:32.358Z,23.65
2022-07-28T02:19:00.846Z,23.75
2022-07-28T02:21:31.419Z,23.58
2022-07-28T02:24:00.091Z,23.58
2022-07-28T02:26:35.618Z,23.62
2022-07-28T02:29:05.401Z,23.05
2022-07-28T02:31:57.135Z,23.46
2022-07-28T02:34:27.999Z,23.40
2022-07-28T02:36:59.094Z,23.62
2022-07-28T02:39:44.795Z,23.64
2022-07-28T02:42:30.924Z,23.66
2022-07-28T02:45:00.023Z,23.70
2022-07-28T02:47:31.549Z,23.44
2022-07-28T02:50:02.154Z,23.40
2022-07-28T02:52:29.966Z,23.19
2022-07-28T02:54:58.973Z,23.05
2022-07-28T02:57:27.325Z,23.14
2022-07-28T02:59:55.747Z,23.03
2022-07-28T03:02:23.006Z,23.17
2022-07-28T03:04:57.078Z,23.09
2022-07-28T03:07:24.098Z,23.19
2022-07-28T03:09:50.973Z,23.15
2022-07-28T03:12:21.967Z,23.24
2022-07-28T03:14:49.282Z,23.29
2022-07-28T03:17:16.708Z,23.31
2022-07-28T03:19:43.654Z,23.11
2022-07-28T03:22:10.780Z,22.99
2022-07-28T03:24:40.821Z,23.05
2022-07-28T03:27:28.785Z,22.70
2022-07-28T03:30:06.355Z,22.77
2022-07-28T03:32:36.785Z,22.92
2022-07-28T03:35:05.085Z,22.62
2022-07-28T03:37:49.995Z,22.82
2022-07-28T03:40:17.756Z,22.73
2022-07-28T03:42:47.825Z,22.60
2022-07-28T03:45:18.022Z,22.91
2022-07-28T03:47:56.302Z,22.77
2022-07-28T03:50:24.316Z,22.82
2022-07-28T03:52:51.725Z,22.78
2022-07-28T03:55:19.167Z,22.52
2022-07-28T03:57:46.126Z,22.65
2022-07-28T04:00:14.868Z,22.78
2022-07-28T04:02:43.995Z,22.85
2022-07-28T04:05:12.812Z,22.83
2022-07-28T04:07:40.835Z,22.94
2022-07-28T04:10:10.156Z,23.05
2022-07-28T04:12:47.867Z,23.26
2022-07-28T04:15:15.698Z,23.24
2022-07-28T04:17:43.566Z,23.15
2022-07-28T04:20:11.838Z,23.12
2022-07-28T04:22:38.954Z,22.80
2022-07-28T04:25:07.025Z,23.02
2022-07-28T04:27:35.753Z,23.10
2022-07-28T04:30:05.646Z,22.80
2022-07-28T04:32:32.553Z,23.01
2022-07-28T04:34:59.486Z,23.06
2022-07-28T04:37:27.461Z,22.79
2022-07-28T04:39:59.666Z,22.69
2022-07-28T04:42:26.717Z,22.82
2022-07-28T04:44:53.498Z,22.83
2022-07-28T04:47:20.284Z,23.10
2022-07-28T04:49:47.116Z,23.16
2022-07-28T04:52:14.145Z,22.97
2022-07-28T04:54:41.005Z,23.62
2022-07-28T04:57:12.009Z,24.34
2022-07-28T04:59:39.875Z,25.08
2022-07-28T05:02:06.974Z,26.06
2022-07-28T05:04:33.773Z,26.46
2022-07-28T05:07:02.289Z,26.88
2022-07-28T05:09:39.565Z,27.42
2022-07-28T05:12:06.821Z,27.45
2022-07-28T05:14:33.595Z,27.52
2022-07-28T05:17:00.452Z,27.74
2022-07-28T05:19:27.359Z,27.32
2022-07-28T05:21:54.066Z,27.68
2022-07-28T05:24:20.855Z,28.26
2022-07-28T05:26:47.595Z,28.63
2022-07-28T05:29:14.374Z,29.50
2022-07-28T05:31:41.200Z,29.48
2022-07-28T05:34:07.975Z,29.51
2022-07-28T05:36:36.186Z,29.33
2022-07-28T05:39:03.738Z,29.41
2022-07-28T05:41:30.597Z,29.14
2022-07-28T05:43:58.544Z,28.74
2022-07-28T05:46:25.413Z,28.18
2022-07-28T05:48:53.133Z,27.33
2022-07-28T05:51:19.945Z,27.78
2022-07-28T05:53:46.925Z,27.76
2022-07-28T05:56:13.755Z,28.31
2022-07-28T05:58:40.634Z,27.21
2022-07-28T06:01:07.558Z,27.20
2022-07-28T06:03:41.444Z,28.09
2022-07-28T06:06:15.828Z,27.61
2022-07-28T06:08:44.024Z,26.64
2022-07-28T06:11:11.936Z,27.32
2022-07-28T06:13:49.614Z,26.86
2022-07-28T06:16:16.546Z,27.09
2022-07-28T06:18:44.150Z,27.01
2022-07-28T06:21:11.143Z,27.00
2022-07-28T06:23:38.294Z,26.78
2022-07-28T06:26:05.124Z,26.77
2022-07-28T06:28:33.156Z,27.25
2022-07-28T06:30:59.986Z,28.36
2022-07-28T06:33:26.914Z,27.97
2022-07-28T06:35:53.796Z,28.56
2022-07-28T06:38:20.866Z,28.19
2022-07-28T06:40:48.596Z,28.74
2022-07-28T06:43:15.460Z,27.94
2022-07-28T06:45:42.465Z,28.82
2022-07-28T06:48:09.384Z,28.61
2022-07-28T06:50:39.485Z,29.38
2022-07-28T06:53:06.556Z,29.19
2022-07-28T06:55:35.522Z,29.72
2022-07-28T06:58:06.218Z,29.69
2022-07-28T07:00:33.186Z,29.73
2022-07-28T07:03:00.765Z,29.93
2022-07-28T07:05:30.084Z,30.72
2022-07-28T07:07:56.888Z,31.14
2022-07-28T07:10:24.098Z,31.02
2022-07-28T07:12:51.036Z,31.42
2022-07-28T07:15:17.906Z,31.58
2022-07-28T07:17:44.735Z,32.34
2022-07-28T07:20:13.624Z,32.68
2022-07-28T07:22:45.287Z,32.69
2022-07-28T07:25:15.382Z,33.04
2022-07-28T07:27:42.416Z,32.56
2022-07-28T07:30:10.156Z,32.28
2022-07-28T07:32:37.455Z,31.00
2022-07-28T07:35:05.113Z,30.25
2022-07-28T07:37:32.870Z,29.16
2022-07-28T07:40:00.494Z,28.11
2022-07-28T07:42:28.007Z,29.35
2022-07-28T07:44:55.178Z,29.70
2022-07-28T07:47:22.155Z,29.60
2022-07-28T07:49:49.526Z,30.25
2022-07-28T07:52:16.315Z,30.30
2022-07-28T07:54:43.669Z,29.05
2022-07-28T07:57:10.574Z,30.40
2022-07-28T07:59:37.557Z,29.91
2022-07-28T08:02:04.652Z,30.03
2022-07-28T08:04:31.908Z,29.88
2022-07-28T08:07:05.100Z,30.43
2022-07-28T08:09:33.166Z,30.11
2022-07-28T08:12:00.261Z,30.15
2022-07-28T08:14:27.096Z,30.11
2022-07-28T08:16:56.619Z,29.47
2022-07-28T08:19:23.700Z,30.05
2022-07-28T08:21:52.066Z,30.35
2022-07-28T08:24:31.672Z,29.62
2022-07-28T08:27:05.096Z,31.07
2022-07-28T08:29:32.575Z,31.13
2022-07-28T08:32:01.501Z,32.26
2022-07-28T08:34:33.178Z,32.56
2022-07-28T08:37:02.859Z,32.38
2022-07-28T08:39:30.975Z,31.83
2022-07-28T08:42:07.592Z,32.80
2022-07-28T08:44:55.277Z,32.91
2022-07-28T08:47:22.489Z,33.63
2022-07-28T08:49:52.078Z,32.63
2022-07-28T08:52:21.726Z,33.15
2022-07-28T08:54:50.154Z,33.36
2022-07-28T08:57:23.075Z,33.88
2022-07-28T08:59:50.325Z,34.46
2022-07-28T09:02:17.621Z,34.84
2022-07-28T09:04:46.499Z,35.45
2022-07-28T09:07:13.880Z,35.77
2022-07-28T09:09:40.776Z,36.10
2022-07-28T09:12:08.234Z,36.38
2022-07-28T09:14:35.174Z,35.99
2022-07-28T09:17:03.149Z,36.78
2022-07-28T09:19:34.053Z,35.88
2022-07-28T09:22:02.977Z,36.48
2022-07-28T09:24:36.613Z,36.26
2022-07-28T09:27:08.275Z,37.03
2022-07-28T09:29:36.935Z,35.23
2022-07-28T09:32:04.979Z,36.10
2022-07-28T09:34:46.377Z,36.59
2022-07-28T09:37:26.501Z,35.22
2022-07-28T09:39:58.345Z,35.76
2022-07-28T09:42:25.994Z,35.15
2022-07-28T09:45:24.292Z,35.20
2022-07-28T09:48:12.147Z,35.69
2022-07-28T09:50:41.015Z,36.45
2022-07-28T09:53:28.515Z,36.34
2022-07-28T09:56:01.291Z,37.18
2022-07-28T09:58:30.336Z,37.71
2022-07-28T10:01:08.045Z,38.13
2022-07-28T10:03:36.883Z,38.78
2022-07-28T10:06:08.508Z,38.44
2022-07-28T10:08:47.445Z,37.52
2022-07-28T10:11:15.978Z,37.80
2022-07-28T10:14:03.182Z,38.46
2022-07-28T10:16:36.978Z,38.92
2022-07-28T10:19:06.450Z,39.59
2022-07-28T10:21:40.597Z,39.70
2022-07-28T10:24:09.513Z,39.10
2022-07-28T10:26:44.988Z,38.79
2022-07-28T10:29:18.637Z,38.40
2022-07-28T10:31:55.164Z,38.51
2022-07-28T10:34:32.085Z,39.20
2022-07-28T10:37:03.095Z,39.55
2022-07-28T10:39:39.625Z,39.44
2022-07-28T10:42:11.276Z,39.99
2022-07-28T10:44:39.146Z,40.30
2022-07-28T10:47:18.413Z,40.73
2022-07-28T10:49:50.400Z,41.33
2022-07-28T10:55:08.643Z,41.93
2022-07-28T10:57:41.896Z,42.62
2022-07-28T11:00:13.210Z,41.82
2022-07-28T11:02:52.544Z,42.57
2022-07-28T11:05:36.561Z,42.72
2022-07-28T11:08:06.538Z,43.23
2022-07-28T11:11:07.695Z,41.74
2022-07-28T11:13:41.059Z,40.49
2022-07-28T11:16:14.648Z,39.47
2022-07-28T11:19:41.979Z,39.01
2022-07-28T11:22:19.215Z,39.36
2022-07-28T11:25:18.837Z,39.72
2022-07-28T11:27:54.630Z,40.36
2022-07-28T11:30:37.501Z,40.49
2022-07-28T11:33:07.254Z,41.22
2022-07-28T11:35:40.420Z,41.12
2022-07-28T11:38:09.377Z,40.98
2022-07-28T11:40:44.206Z,40.99
2022-07-28T11:43:36.006Z,41.34
2022-07-28T11:46:05.303Z,41.13
2022-07-28T11:48:37.327Z,40.82
2022-07-28T11:51:04.249Z,40.74
2022-07-28T11:53:41.907Z,40.45
2022-07-28T11:56:10.727Z,40.75
2022-07-28T11:58:38.956Z,40.91
2022-07-28T12:01:17.757Z,40.93
2022-07-28T12:03:49.197Z,39.71
2022-07-28T12:06:29.072Z,38.07
2022-07-28T12:09:05.477Z,38.07
2022-07-28T12:11:34.435Z,38.93
2022-07-28T12:14:04.454Z,39.15
2022-07-28T12:16:33.507Z,38.00
2022-07-28T12:19:01.682Z,38.47
2022-07-28T12:21:47.480Z,38.11
2022-07-28T12:24:27.926Z,38.13
2022-07-28T12:26:56.035Z,38.70
2022-07-28T12:29:24.107Z,37.83
2022-07-28T12:32:06.838Z,38.84
2022-07-28T12:34:35.336Z,39.63
2022-07-28T12:37:09.995Z,39.99
2022-07-28T12:39:39.907Z,39.75
2022-07-28T12:42:10.018Z,40.51
2022-07-28T12:44:37.856Z,40.02
2022-07-28T12:47:08.397Z,40.37
2022-07-28T12:49:36.586Z,40.73
2022-07-28T12:52:25.594Z,40.88
2022-07-28T12:54:55.737Z,40.90
2022-07-28T12:57:48.881Z,41.29
2022-07-28T13:00:20.129Z,41.07
2022-07-28T13:02:48.551Z,40.77
2022-07-28T13:05:55.631Z,41.10
2022-07-28T13:08:27.603Z,41.26
2022-07-28T13:10:58.593Z,41.60
2022-07-28T13:13:26.154Z,41.44
2022-07-28T13:16:31.797Z,41.97
2022-07-28T13:19:02.882Z,42.04
2022-07-28T13:21:56.605Z,40.69
2022-07-28T13:24:24.456Z,40.38
2022-07-28T13:26:51.355Z,39.85
2022-07-28T13:29:18.335Z,39.39
2022-07-28T13:31:45.195Z,39.11
2022-07-28T13:34:12.292Z,38.85
2022-07-28T13:36:39.457Z,38.92
2022-07-28T13:39:07.979Z,39.02
2022-07-28T13:41:42.080Z,39.53
2022-07-28T13:44:21.636Z,40.14
2022-07-28T13:46:50.049Z,40.37
2022-07-28T13:49:17.408Z,40.76
2022-07-28T13:51:48.533Z,41.14
2022-07-28T13:54:18.521Z,41.05
2022-07-28T13:56:45.791Z,41.03
2022-07-28T13:59:13.845Z,41.04
2022-07-28T14:01:42.465Z,41.28
2022-07-28T14:04:15.001Z,41.24
2022-07-28T14:06:45.328Z,41.28
2022-07-28T14:09:18.193Z,41.73
2022-07-28T14:11:49.576Z,41.89
2022-07-28T14:14:20.540Z,41.83
2022-07-28T14:16:52.402Z,41.93
2022-07-28T14:19:23.342Z,41.39
2022-07-28T14:22:10.510Z,41.73
2022-07-28T14:24:40.135Z,41.58
2022-07-28T14:27:07.055Z,41.69
2022-07-28T14:29:33.864Z,40.46
2022-07-28T14:32:00.689Z,40.03
2022-07-28T14:34:27.496Z,40.04
2022-07-28T14:36:56.496Z,40.18
2022-07-28T14:39:23.224Z,40.37
2022-07-28T14:41:50.833Z,40.49
2022-07-28T14:44:24.401Z,39.86
2022-07-28T14:46:52.235Z,39.47
2022-07-28T14:49:19.176Z,39.82
2022-07-28T14:51:46.155Z,40.01
2022-07-28T14:54:13.521Z,40.03
2022-07-28T14:56:40.575Z,40.01
2022-07-28T14:59:07.418Z,40.13
2022-07-28T15:01:36.110Z,40.23
2022-07-28T15:04:03.796Z,40.18
2022-07-28T15:06:30.636Z,40.29
2022-07-28T15:08:58.633Z,40.46
2022-07-28T15:11:26.336Z,39.48
2022-07-28T15:13:53.095Z,39.60
2022-07-28T15:16:19.995Z,39.50
2022-07-28T15:18:46.885Z,39.60
2022-07-28T15:21:16.807Z,39.51
2022-07-28T15:23:44.308Z,39.29
2022-07-28T15:26:11.548Z,39.50
2022-07-28T15:28:38.836Z,39.79
2022-07-28T15:31:07.801Z,39.86
2022-07-28T15:33:47.750Z,39.77
2022-07-28T15:36:15.865Z,39.54
2022-07-28T15:38:47.446Z,39.01
2022-07-28T15:41:16.629Z,38.43
2022-07-28T15:43:43.700Z,38.29
2022-07-28T15:46:13.165Z,38.20
2022-07-28T15:48:43.417Z,38.33
2022-07-28T15:51:10.731Z,38.25
2022-07-28T15:53:38.306Z,38.44
2022-07-28T15:56:05.534Z,38.41
2022-07-28T15:58:32.465Z,38.40
2022-07-28T16:01:01.007Z,38.33
2022-07-28T16:03:29.795Z,38.41
2022-07-28T16:05:57.376Z,38.28
2022-07-28T16:08:24.326Z,38.15
2022-07-28T16:10:54.245Z,38.23
2022-07-28T16:13:31.338Z,38.19
2022-07-28T16:16:04.408Z,38.21
2022-07-28T16:18:32.176Z,38.07
2022-07-28T16:20:59.216Z,38.06
2022-07-28T16:23:26.143Z,38.05
2022-07-28T16:25:53.082Z,37.90
2022-07-28T16:28:19.938Z,37.86
2022-07-28T16:30:48.172Z,37.77
2022-07-28T16:33:15.006Z,37.69
2022-07-28T16:35:41.836Z,37.65
2022-07-28T16:38:08.655Z,37.51
2022-07-28T16:40:35.583Z,37.50
2022-07-28T16:43:04.437Z,37.43
2022-07-28T16:45:31.730Z,37.35
2022-07-28T16:47:59.314Z,37.36
2022-07-28T16:50:26.097Z,37.27
2022-07-28T16:52:55.738Z,37.11
2022-07-28T16:55:24.615Z,37.04
2022-07-28T16:57:54.160Z,36.88
2022-07-28T17:00:21.602Z,36.76
2022-07-28T17:02:48.477Z,36.67
2022-07-28T17:05:15.376Z,36.64
2022-07-28T17:07:45.536Z,36.42
2022-07-28T17:10:15.448Z,36.25
2022-07-28T17:12:49.696Z,36.21
2022-07-28T17:15:21.959Z,36.10
2022-07-28T17:17:51.032Z,36.08
2022-07-28T17:20:19.104Z,36.06
2022-07-28T17:22:45.924Z,35.99
2022-07-28T17:25:42.939Z,35.78
2022-07-28T17:27:59.911Z,35.70
2022-07-28T17:30:29.820Z,35.57
2022-07-28T17:33:00.026Z,35.45
2022-07-28T17:35:31.918Z,35.28
2022-07-28T17:38:03.912Z,35.13
2022-07-28T17:40:30.936Z,35.02
2022-07-28T17:42:57.825Z,34.99
2022-07-28T17:45:25.083Z,34.81
2022-07-28T17:47:51.995Z,34.72
2022-07-28T17:50:19.004Z,34.70
2022-07-28T17:52:46.781Z,34.61
2022-07-28T17:55:40.761Z,34.60
2022-07-28T17:58:28.113Z,34.51
2022-07-28T18:01:09.579Z,34.36
2022-07-28T18:03:56.577Z,34.25
2022-07-28T18:06:35.514Z,34.16
2022-07-28T18:09:07.912Z,34.07
2022-07-28T18:11:57.428Z,33.92
2022-07-28T18:14:27.849Z,33.65
2022-07-28T18:16:55.105Z,33.58
2022-07-28T18:19:22.003Z,33.53
2022-07-28T18:21:49.373Z,33.59
2022-07-28T18:24:16.903Z,33.35
2022-07-28T18:26:44.194Z,32.93
2022-07-28T18:29:10.999Z,32.82
2022-07-28T18:31:43.825Z,32.58
2022-07-28T18:34:13.734Z,32.24
2022-07-28T18:36:40.843Z,32.12
2022-07-28T18:39:08.726Z,32.06
2022-07-28T18:41:46.176Z,32.08
2022-07-28T18:44:18.561Z,32.02
2022-07-28T18:46:46.246Z,31.89
2022-07-28T18:49:13.456Z,31.92
2022-07-28T18:51:44.229Z,31.82
2022-07-28T18:54:12.758Z,31.81
2022-07-28T18:56:40.096Z,31.68
2022-07-28T18:59:07.656Z,31.55
2022-07-28T19:01:34.715Z,31.44
2022-07-28T19:04:01.823Z,31.41
2022-07-28T19:06:29.667Z,31.33
2022-07-28T19:08:56.477Z,31.17
2022-07-28T19:11:23.375Z,31.20
2022-07-28T19:13:50.276Z,31.13
2022-07-28T19:16:17.344Z,31.02
2022-07-28T19:18:44.194Z,30.86
2022-07-28T19:21:11.137Z,30.88
2022-07-28T19:23:38.256Z,30.80
2022-07-28T19:26:05.157Z,30.76
2022-07-28T19:28:32.376Z,30.68
2022-07-28T19:31:10.112Z,30.72
2022-07-28T19:33:37.667Z,30.30
2022-07-28T19:36:11.217Z,30.37
2022-07-28T19:38:38.136Z,30.45
2022-07-28T19:41:04.955Z,30.18
2022-07-28T19:43:32.056Z,29.71
2022-07-28T19:46:00.333Z,29.59
2022-07-28T19:48:27.457Z,29.56
2022-07-28T19:50:54.675Z,29.15
2022-07-28T19:53:25.111Z,29.22
2022-07-28T19:55:58.572Z,29.13
2022-07-28T19:58:25.505Z,28.97
2022-07-28T20:00:52.682Z,29.03
2022-07-28T20:04:01.759Z,28.88
2022-07-28T20:06:07.684Z,28.97
2022-07-28T20:08:34.502Z,28.83
2022-07-28T20:11:01.615Z,28.91
2022-07-28T20:13:28.555Z,28.78
2022-07-28T20:15:55.956Z,28.82
2022-07-28T20:18:22.706Z,28.67
2022-07-28T20:20:49.595Z,28.69
2022-07-28T20:23:16.574Z,28.69
2022-07-28T20:25:45.437Z,28.59
2022-07-28T20:28:12.607Z,28.53
2022-07-28T20:30:40.226Z,28.56
2022-07-28T20:33:08.285Z,28.42
2022-07-28T20:35:35.337Z,28.59
2022-07-28T20:38:03.196Z,28.43
2022-07-28T20:40:30.325Z,28.30
2022-07-28T20:42:57.113Z,27.95
2022-07-28T20:45:24.014Z,27.89
2022-07-28T20:47:50.794Z,27.91
2022-07-28T20:50:18.005Z,28.02
2022-07-28T20:52:44.875Z,27.94
2022-07-28T20:55:12.577Z,27.93
2022-07-28T20:57:39.517Z,27.75
2022-07-28T21:00:07.286Z,27.82
2022-07-28T21:02:34.376Z,27.71
2022-07-28T21:05:01.368Z,27.77
2022-07-28T21:08:04.611Z,27.69
2022-07-28T21:10:15.045Z,27.70
2022-07-28T21:12:42.037Z,27.63
2022-07-28T21:15:09.684Z,27.62
2022-07-28T21:17:37.126Z,27.50
2022-07-28T21:20:05.130Z,27.42
2022-07-28T21:22:32.007Z,27.15
2022-07-28T21:24:59.398Z,27.05
2022-07-28T21:27:26.397Z,27.09
2022-07-28T21:32:19.223Z,27.11
2022-07-28T21:34:46.174Z,27.15
2022-07-28T21:37:13.918Z,27.13
2022-07-28T21:39:40.803Z,26.99
2022-07-28T21:42:08.730Z,26.99
2022-07-28T21:44:37.135Z,26.92
2022-07-28T21:47:04.468Z,26.84
2022-07-28T21:49:32.621Z,26.93
2022-07-28T21:51:59.819Z,26.79
2022-07-28T21:54:26.661Z,26.66
2022-07-28T21:56:53.476Z,26.60
2022-07-28T21:59:20.336Z,26.67
2022-07-28T22:01:47.919Z,26.35
2022-07-28T22:04:15.399Z,26.38
2022-07-28T22:06:46.183Z,26.26
2022-07-28T22:09:14.929Z,26.52
2022-07-28T22:11:42.246Z,26.57
2022-07-28T22:14:09.674Z,26.46
2022-07-28T22:16:36.548Z,26.31
2022-07-28T22:19:04.005Z,26.03
2022-07-28T22:21:31.339Z,26.00
2022-07-28T22:23:58.171Z,25.96
2022-07-28T22:26:25.143Z,25.99
2022-07-28T22:28:52.000Z,26.02
2022-07-28T22:31:18.929Z,26.03
2022-07-28T22:33:45.804Z,25.94
2022-07-28T22:36:12.756Z,25.77
2022-07-28T22:38:39.521Z,25.84
2022-07-28T22:41:06.392Z,25.68
2022-07-28T22:43:34.081Z,25.73
2022-07-28T22:46:01.271Z,25.58
2022-07-28T22:48:28.530Z,25.55
2022-07-28T22:50:55.820Z,25.25
2022-07-28T22:53:22.651Z,25.10
2022-07-28T22:55:49.535Z,25.41
2022-07-28T22:58:16.426Z,25.40
2022-07-28T23:00:43.886Z,25.41
2022-07-28T23:03:13.256Z,25.26
2022-07-28T23:05:40.452Z,25.30
2022-07-28T23:08:07.439Z,25.30
2022-07-28T23:10:34.868Z,25.24
2022-07-28T23:13:02.187Z,25.23
2022-07-28T23:15:41.214Z,25.22
2022-07-28T23:18:12.027Z,25.24
2022-07-28T23:20:39.327Z,25.13
2022-07-28T23:23:06.948Z,25.17
2022-07-28T23:25:39.761Z,25.19
2022-07-28T23:28:07.925Z,25.14
2022-07-28T23:30:35.090Z,25.10
2022-07-28T23:33:02.026Z,25.06
2022-07-28T23:35:29.026Z,24.88
2022-07-28T23:37:55.983Z,24.76
2022-07-28T23:40:23.045Z,24.98
2022-07-28T23:42:49.893Z,24.93
2022-07-28T23:45:16.825Z,24.75
2022-07-28T23:47:43.657Z,24.58
2022-07-28T23:50:10.866Z,24.79
2022-07-28T23:52:37.746Z,24.83
2022-07-28T23:55:05.295Z,24.97
2022-07-28T23:57:32.131Z,24.79
